createdAt,value
2023-05-08T00:01:01.918Z,99207.28
2023-05-08T00:03:30.594Z,99213.50
2023-05-08T00:05:59.118Z,99207.28
2023-05-08T00:08:27.493Z,99222.59
2023-05-08T00:10:56.045Z,99211.00
2023-05-08T00:13:24.512Z,99209.97
2023-05-08T00:15:52.998Z,99209.97
2023-05-08T00:18:22.903Z,99204.59
2023-05-08T00:20:51.482Z,99205.59
2023-05-08T00:23:22.411Z,99208.31
2023-05-08T00:25:50.894Z,99214.53
2023-05-08T00:28:19.364Z,99212.00
2023-05-08T00:30:47.931Z,99200.22
2023-05-08T00:33:16.605Z,99210.81
2023-05-08T00:35:46.476Z,99213.34
2023-05-08T00:38:15.137Z,99215.34
2023-05-08T00:40:43.987Z,99225.13
2023-05-08T00:43:12.355Z,99203.75
2023-05-08T00:45:41.709Z,99213.69
2023-05-08T00:48:10.239Z,99218.22
2023-05-08T00:50:38.603Z,99209.13
2023-05-08T00:53:08.558Z,99212.00
2023-05-08T00:55:36.982Z,99218.22
2023-05-08T00:58:05.543Z,99212.00
2023-05-08T01:00:34.286Z,99211.00
2023-05-08T01:03:02.862Z,99210.16
2023-05-08T01:05:31.246Z,99214.69
2023-05-08T01:07:59.717Z,99213.69
2023-05-08T01:10:39.706Z,99214.69
2023-05-08T01:13:13.106Z,99219.06
2023-05-08T01:15:46.333Z,99217.06
2023-05-08T01:18:18.627Z,99215.03
2023-05-08T01:20:50.771Z,99227.13
2023-05-08T01:24:17.305Z,99227.28
2023-05-08T01:27:21.564Z,99228.16
2023-05-08T01:30:38.657Z,99233.53
2023-05-08T01:33:14.232Z,99231.81
2023-05-08T01:35:46.696Z,99238.91
2023-05-08T01:38:23.859Z,99238.91
2023-05-08T01:40:55.108Z,99238.19
2023-05-08T01:43:30.346Z,99232.81
2023-05-08T01:45:59.656Z,99233.78
2023-05-08T01:48:32.639Z,99242.75
2023-05-08T01:51:05.443Z,99234.66
2023-05-08T01:53:44.796Z,99238.19
2023-05-08T01:56:24.290Z,99241.88
2023-05-08T01:58:53.003Z,99241.88
2023-05-08T02:01:24.601Z,99241.03
2023-05-08T02:03:54.519Z,99239.19
2023-05-08T02:06:23.581Z,99237.50
2023-05-08T02:08:52.148Z,99226.75
2023-05-08T02:11:20.784Z,99229.56
2023-05-08T02:13:49.512Z,99232.13
2023-05-08T02:16:17.896Z,99231.28
2023-05-08T02:18:49.944Z,99236.66
2023-05-08T02:21:19.760Z,99240.19
2023-05-08T02:23:48.231Z,99242.88
2023-05-08T02:26:17.138Z,99242.03
2023-05-08T02:28:45.492Z,99245.56
2023-05-08T02:31:14.517Z,99247.44
2023-05-08T02:33:44.114Z,99235.81
2023-05-08T02:36:14.323Z,99246.59
2023-05-08T02:38:45.649Z,99246.59
2023-05-08T02:41:14.305Z,99244.88
2023-05-08T02:43:42.718Z,99253.97
2023-05-08T02:46:14.079Z,99250.25
2023-05-08T02:48:48.581Z,99250.25
2023-05-08T02:51:21.305Z,99253.78
2023-05-08T02:53:54.456Z,99252.25
2023-05-08T02:56:31.916Z,99258.50
2023-05-08T02:59:06.664Z,99252.25
2023-05-08T03:01:47.093Z,99246.03
2023-05-08T03:04:23.244Z,99254.94
2023-05-08T03:06:51.621Z,99253.28
2023-05-08T03:09:22.771Z,99257.63
2023-05-08T03:11:51.872Z,99263.19
2023-05-08T03:14:22.983Z,99252.25
2023-05-08T03:16:52.369Z,99255.13
2023-05-08T03:19:23.631Z,99261.34
2023-05-08T03:21:53.021Z,99272.09
2023-05-08T03:24:22.819Z,99266.72
2023-05-08T03:26:51.519Z,99271.28
2023-05-08T03:29:20.170Z,99265.06
2023-05-08T03:31:48.863Z,99265.06
2023-05-08T03:34:17.319Z,99267.75
2023-05-08T03:36:45.736Z,99262.34
2023-05-08T03:39:14.332Z,99266.03
2023-05-08T03:41:44.194Z,99270.44
2023-05-08T03:44:12.691Z,99272.28
2023-05-08T03:46:41.302Z,99264.22
2023-05-08T03:49:09.800Z,99266.91
2023-05-08T03:51:40.328Z,99269.59
2023-05-08T03:54:08.706Z,99263.34
2023-05-08T03:56:37.046Z,99268.72
2023-05-08T03:59:16.985Z,99274.09
2023-05-08T04:01:50.561Z,99269.59
2023-05-08T04:04:20.532Z,99269.59
2023-05-08T04:06:52.858Z,99270.56
2023-05-08T04:09:25.853Z,99268.72
2023-05-08T04:12:00.646Z,99268.72
2023-05-08T04:14:33.090Z,99273.13
2023-05-08T04:17:04.322Z,99270.44
2023-05-08T04:19:41.673Z,99280.19
2023-05-08T04:22:10.302Z,99276.66
2023-05-08T04:24:42.054Z,99277.50
2023-05-08T04:27:10.707Z,99288.25
2023-05-08T04:29:40.410Z,99287.25
2023-05-08T04:32:09.459Z,99296.31
2023-05-08T04:34:38.132Z,99292.63
2023-05-08T04:37:08.508Z,99302.41
2023-05-08T04:39:37.091Z,99307.78
2023-05-08T04:42:05.713Z,99323.09
2023-05-08T04:44:34.379Z,99323.22
2023-05-08T04:47:04.130Z,99321.38
2023-05-08T04:49:32.446Z,99320.53
2023-05-08T04:52:01.345Z,99323.22
2023-05-08T04:54:29.682Z,99325.91
2023-05-08T04:56:58.734Z,99330.28
2023-05-08T04:59:27.141Z,99333.84
2023-05-08T05:01:55.606Z,99343.59
2023-05-08T05:04:25.691Z,99339.06
2023-05-08T05:06:54.053Z,99336.38
2023-05-08T05:09:22.579Z,99343.47
2023-05-08T05:11:50.925Z,99347.81
2023-05-08T05:14:19.323Z,99347.13
2023-05-08T05:16:47.877Z,99354.22
2023-05-08T05:19:16.593Z,99359.59
2023-05-08T05:21:46.514Z,99354.22
2023-05-08T05:24:14.923Z,99356.03
2023-05-08T05:26:43.260Z,99361.28
2023-05-08T05:29:11.614Z,99358.91
2023-05-08T05:31:40.053Z,99366.66
2023-05-08T05:34:08.641Z,99364.66
2023-05-08T05:36:37.394Z,99365.66
2023-05-08T05:39:07.252Z,99373.47
2023-05-08T05:41:36.600Z,99369.75
2023-05-08T05:44:06.828Z,99377.84
2023-05-08T05:46:35.520Z,99397.38
2023-05-08T05:49:04.203Z,99376.22
2023-05-08T05:51:32.590Z,99373.34
2023-05-08T05:54:01.138Z,99384.41
2023-05-08T05:56:30.880Z,99389.13
2023-05-08T05:58:59.544Z,99392.81
2023-05-08T06:01:29.204Z,99397.22
2023-05-08T06:03:57.732Z,99397.34
2023-05-08T06:06:26.490Z,99406.25
2023-05-08T06:08:54.831Z,99402.88
2023-05-08T06:11:23.740Z,99409.88
2023-05-08T06:13:53.533Z,99414.88
2023-05-08T06:16:23.331Z,99412.31
2023-05-08T06:18:52.096Z,99407.78
2023-05-08T06:21:20.470Z,99406.81
2023-05-08T06:23:48.899Z,99411.34
2023-05-08T06:26:17.302Z,99420.56
2023-05-08T06:28:45.646Z,99421.00
2023-05-08T06:31:15.494Z,99434.00
2023-05-08T06:33:44.113Z,99428.47
2023-05-08T06:36:13.515Z,99422.94
2023-05-08T06:38:41.906Z,99425.63
2023-05-08T06:41:10.822Z,99430.19
2023-05-08T06:43:39.273Z,99420.94
2023-05-08T06:46:07.776Z,99430.69
2023-05-08T06:48:37.806Z,99440.44
2023-05-08T06:51:06.354Z,99432.69
2023-05-08T06:53:34.727Z,99439.09
2023-05-08T06:56:03.316Z,99438.06
2023-05-08T06:58:32.241Z,99432.16
2023-05-08T07:01:01.985Z,99433.00
2023-05-08T07:03:30.386Z,99439.78
2023-05-08T07:06:00.142Z,99445.00
2023-05-08T07:08:30.318Z,99439.78
2023-05-08T07:10:58.710Z,99442.75
2023-05-08T07:13:27.373Z,99439.09
2023-05-08T07:15:56.102Z,99448.44
2023-05-08T07:18:24.671Z,99446.44
2023-05-08T07:20:53.325Z,99452.97
2023-05-08T07:23:23.090Z,99455.38
2023-05-08T07:25:51.649Z,99454.53
2023-05-08T07:28:20.254Z,99450.16
2023-05-08T07:30:48.848Z,99445.75
2023-05-08T07:33:17.286Z,99457.22
2023-05-08T07:35:45.797Z,99462.44
2023-05-08T07:38:14.181Z,99449.16
2023-05-08T07:40:43.962Z,99448.31
2023-05-08T07:43:13.502Z,99448.13
2023-05-08T07:45:42.306Z,99455.91
2023-05-08T07:48:11.896Z,99457.06
2023-05-08T07:50:40.407Z,99448.84
2023-05-08T07:53:08.766Z,99466.81
2023-05-08T07:55:37.571Z,99446.00
2023-05-08T07:58:07.843Z,99458.63
2023-05-08T08:00:36.561Z,99453.22
2023-05-08T08:03:05.239Z,99449.53
2023-05-08T08:05:33.689Z,99459.28
2023-05-08T08:08:02.354Z,99448.53
2023-05-08T08:10:31.568Z,99447.53
2023-05-08T08:13:02.005Z,99461.69
2023-05-08T08:15:31.816Z,99456.31
2023-05-08T08:18:00.278Z,99450.75
2023-05-08T08:20:28.745Z,99460.50
2023-05-08T08:22:57.152Z,99454.28
2023-05-08T08:25:25.754Z,99463.19
2023-05-08T08:27:54.116Z,99460.69
2023-05-08T08:30:22.960Z,99461.69
2023-05-08T08:32:52.920Z,99451.91
2023-05-08T08:35:23.090Z,99464.53
2023-05-08T08:37:51.738Z,99467.91
2023-05-08T08:40:20.273Z,99462.69
2023-05-08T08:42:48.798Z,99465.06
2023-05-08T08:45:17.605Z,99463.38
2023-05-08T08:47:46.785Z,99465.91
2023-05-08T08:50:16.883Z,99473.00
2023-05-08T08:52:49.511Z,99471.13
2023-05-08T08:55:19.302Z,99474.66
2023-05-08T08:57:56.052Z,99468.44
2023-05-08T09:00:24.649Z,99468.53
2023-05-08T09:02:53.316Z,99478.19
2023-05-08T09:05:25.085Z,99474.97
2023-05-08T09:07:55.457Z,99477.66
2023-05-08T09:10:25.142Z,99487.41
2023-05-08T09:12:53.661Z,99476.97
2023-05-08T09:15:22.220Z,99484.91
2023-05-08T09:17:50.731Z,99491.13
2023-05-08T09:20:19.243Z,99472.47
2023-05-08T09:22:49.003Z,99477.53
2023-05-08T09:25:19.195Z,99474.13
2023-05-08T09:27:47.822Z,99474.13
2023-05-08T09:30:16.628Z,99468.75
2023-05-08T09:32:45.789Z,99462.38
2023-05-08T09:35:14.749Z,99458.00
2023-05-08T09:37:44.231Z,99463.06
2023-05-08T09:40:18.741Z,99465.75
2023-05-08T09:42:47.516Z,99465.63
2023-05-08T09:45:28.980Z,99462.06
2023-05-08T09:47:57.617Z,99457.53
2023-05-08T09:50:26.752Z,99458.69
2023-05-08T09:52:55.188Z,99450.63
2023-05-08T09:55:24.986Z,99452.31
2023-05-08T09:57:56.418Z,99447.75
2023-05-08T10:00:25.195Z,99437.84
2023-05-08T10:02:58.362Z,99439.56
2023-05-08T10:05:30.139Z,99444.22
2023-05-08T10:07:58.989Z,99445.25
2023-05-08T10:10:31.094Z,99436.16
2023-05-08T10:12:59.930Z,99438.72
2023-05-08T10:15:31.235Z,99445.25
2023-05-08T10:18:05.062Z,99447.63
2023-05-08T10:20:34.592Z,99451.28
2023-05-08T10:23:03.397Z,99444.22
2023-05-08T10:25:34.887Z,99430.78
2023-05-08T10:28:11.451Z,99433.47
2023-05-08T10:30:42.909Z,99439.88
2023-05-08T10:33:12.101Z,99431.47
2023-05-08T10:35:40.492Z,99434.16
2023-05-08T10:38:10.009Z,99439.56
2023-05-08T10:40:39.826Z,99434.88
2023-05-08T10:43:08.850Z,99426.81
2023-05-08T10:45:37.376Z,99422.25
2023-05-08T10:48:10.465Z,99433.84
2023-05-08T10:50:47.695Z,99436.53
2023-05-08T10:53:20.575Z,99435.72
2023-05-08T10:55:52.684Z,99440.06
2023-05-08T10:58:31.788Z,99428.78
2023-05-08T11:01:17.107Z,99424.25
2023-05-08T11:03:51.713Z,99430.63
2023-05-08T11:06:45.610Z,99420.34
2023-05-08T11:09:22.548Z,99418.34
2023-05-08T11:12:09.253Z,99421.88
2023-05-08T11:14:41.143Z,99428.09
2023-05-08T11:17:10.634Z,99403.03
2023-05-08T11:19:39.785Z,99415.34
2023-05-08T11:22:23.813Z,99419.00
2023-05-08T11:25:01.121Z,99425.41
2023-05-08T11:28:11.730Z,99424.56
2023-05-08T11:30:41.631Z,99431.78
2023-05-08T11:33:17.543Z,99422.00
2023-05-08T11:35:54.940Z,99426.72
2023-05-08T11:38:32.924Z,99425.72
2023-05-08T11:41:03.430Z,99431.78
2023-05-08T11:44:19.661Z,99418.66
2023-05-08T11:46:52.143Z,99413.28
2023-05-08T11:49:26.001Z,99416.63
2023-05-08T11:51:58.567Z,99414.94
2023-05-08T11:54:30.915Z,99412.09
2023-05-08T11:57:02.001Z,99403.88
2023-05-08T11:59:30.690Z,99402.19
2023-05-08T12:02:08.693Z,99399.66
2023-05-08T12:04:46.639Z,99408.88
2023-05-08T12:07:16.319Z,99415.25
2023-05-08T12:09:47.530Z,99412.09
2023-05-08T12:12:15.951Z,99410.28
2023-05-08T12:14:44.520Z,99411.44
2023-05-08T12:17:13.063Z,99408.72
2023-05-08T12:19:41.731Z,99414.13
2023-05-08T12:22:10.599Z,99411.25
2023-05-08T12:24:40.284Z,99420.34
2023-05-08T12:27:10.299Z,99402.50
2023-05-08T12:29:39.193Z,99401.56
2023-05-08T12:32:07.731Z,99410.19
2023-05-08T12:34:36.360Z,99415.56
2023-05-08T12:37:05.153Z,99413.56
2023-05-08T12:39:40.266Z,99418.66
2023-05-08T12:42:10.025Z,99416.34
2023-05-08T12:44:38.628Z,99418.16
2023-05-08T12:47:07.383Z,99447.03
2023-05-08T12:49:35.773Z,99424.25
2023-05-08T12:52:05.476Z,99431.00
2023-05-08T12:54:38.259Z,99406.66
2023-05-08T12:57:14.431Z,99406.66
2023-05-08T12:59:42.869Z,99402.09
2023-05-08T13:02:16.543Z,99412.88
2023-05-08T13:04:45.325Z,99404.94
2023-05-08T13:07:13.780Z,99417.72
2023-05-08T13:09:42.520Z,99400.88
2023-05-08T13:12:10.973Z,99414.00
2023-05-08T13:14:40.749Z,99427.47
2023-05-08T13:17:09.174Z,99414.00
2023-05-08T13:19:37.532Z,99416.00
2023-05-08T13:22:06.036Z,99406.97
2023-05-08T13:24:34.433Z,99411.31
2023-05-08T13:27:03.162Z,99423.38
2023-05-08T13:29:31.745Z,99395.50
2023-05-08T13:32:01.686Z,99401.28
2023-05-08T13:34:30.519Z,99395.72
2023-05-08T13:36:59.192Z,99387.19
2023-05-08T13:39:27.520Z,99386.19
2023-05-08T13:41:56.122Z,99375.16
2023-05-08T13:44:24.730Z,99377.84
2023-05-08T13:46:53.232Z,99371.59
2023-05-08T13:49:24.289Z,99374.97
2023-05-08T13:51:56.969Z,99375.69
2023-05-08T13:54:26.012Z,99377.03
2023-05-08T13:56:54.480Z,99371.66
2023-05-08T13:59:22.971Z,99385.13
2023-05-08T14:01:51.346Z,99381.59
2023-05-08T14:04:20.173Z,99392.34
2023-05-08T14:06:50.972Z,99388.69
2023-05-08T14:09:19.346Z,99384.13
2023-05-08T14:11:48.047Z,99383.97
2023-05-08T14:14:16.427Z,99382.16
2023-05-08T14:16:44.790Z,99381.97
2023-05-08T14:19:13.281Z,99373.38
2023-05-08T14:21:42.129Z,99383.97
2023-05-08T14:24:12.187Z,99391.44
2023-05-08T14:26:40.574Z,99376.75
2023-05-08T14:29:08.993Z,99382.44
2023-05-08T14:31:38.095Z,99378.69
2023-05-08T14:34:06.564Z,99381.88
2023-05-08T14:36:35.200Z,99383.34
2023-05-08T14:39:03.569Z,99381.06
2023-05-08T14:41:33.981Z,99384.59
2023-05-08T14:44:02.556Z,99387.88
2023-05-08T14:46:31.316Z,99369.78
2023-05-08T14:48:59.824Z,99374.66
2023-05-08T14:51:28.297Z,99375.50
2023-05-08T14:53:56.945Z,99383.28
2023-05-08T14:56:26.107Z,99378.19
2023-05-08T14:58:55.936Z,99385.91
2023-05-08T15:01:24.417Z,99381.28
2023-05-08T15:03:54.163Z,99382.28
2023-05-08T15:06:23.083Z,99385.91
2023-05-08T15:08:51.904Z,99390.66
2023-05-08T15:13:58.900Z,99392.22
2023-05-08T15:16:27.702Z,99382.44
2023-05-08T15:18:56.094Z,99387.81
2023-05-08T15:21:26.658Z,99390.81
2023-05-08T15:23:55.681Z,99384.44
2023-05-08T15:26:24.116Z,99379.91
2023-05-08T15:28:52.637Z,99379.91
2023-05-08T15:31:23.180Z,99377.22
2023-05-08T15:33:51.592Z,99373.50
2023-05-08T15:36:20.041Z,99368.00
2023-05-08T15:38:49.325Z,99379.59
2023-05-08T15:41:17.892Z,99377.03
2023-05-08T15:43:46.623Z,99384.13
2023-05-08T15:46:15.264Z,99368.97
2023-05-08T15:48:45.172Z,99377.91
2023-05-08T15:51:15.458Z,99378.91
2023-05-08T15:53:43.953Z,99367.44
2023-05-08T15:56:12.368Z,99378.91
2023-05-08T15:58:40.774Z,99370.69
2023-05-08T16:01:09.383Z,99378.59
2023-05-08T16:03:37.824Z,99361.78
2023-05-08T16:06:08.007Z,99369.84
2023-05-08T16:08:36.426Z,99364.59
2023-05-08T16:11:04.877Z,99371.84
2023-05-08T16:13:33.625Z,99362.94
2023-05-08T16:16:05.213Z,99358.53
2023-05-08T16:18:33.818Z,99354.84
2023-05-08T16:21:02.326Z,99359.38
2023-05-08T16:23:32.517Z,99353.00
2023-05-08T16:26:01.063Z,99356.69
2023-05-08T16:28:29.940Z,99360.38
2023-05-08T16:30:58.855Z,99359.22
2023-05-08T16:33:27.613Z,99360.06
2023-05-08T16:35:56.574Z,99358.38
2023-05-08T16:38:25.411Z,99359.22
2023-05-08T16:40:55.240Z,99359.47
2023-05-08T16:43:24.254Z,99356.47
2023-05-08T16:45:53.015Z,99358.66
2023-05-08T16:48:21.705Z,99349.75
2023-05-08T16:50:50.476Z,99359.53
2023-05-08T16:53:18.990Z,99359.69
2023-05-08T16:55:47.863Z,99359.81
2023-05-08T16:58:17.656Z,99364.22
2023-05-08T17:00:46.393Z,99363.06
2023-05-08T17:03:15.089Z,99363.91
2023-05-08T17:05:44.248Z,99358.53
2023-05-08T17:08:12.895Z,99358.53
2023-05-08T17:10:41.681Z,99362.22
2023-05-08T17:13:10.482Z,99359.53
2023-05-08T17:15:40.368Z,99363.91
2023-05-08T17:18:08.815Z,99369.28
2023-05-08T17:20:41.236Z,99362.22
2023-05-08T17:23:09.795Z,99367.59
2023-05-08T17:25:38.440Z,99358.84
2023-05-08T17:28:06.923Z,99368.59
2023-05-08T17:30:35.526Z,99372.28
2023-05-08T17:33:05.867Z,99378.38
2023-05-08T17:35:34.768Z,99361.34
2023-05-08T17:38:03.480Z,99364.91
2023-05-08T17:40:32.403Z,99355.00
2023-05-08T17:43:01.002Z,99357.69
2023-05-08T17:45:29.526Z,99363.06
2023-05-08T17:47:58.080Z,99352.44
2023-05-08T17:50:28.018Z,99358.66
2023-05-08T17:52:58.444Z,99352.44
2023-05-08T17:55:27.056Z,99361.22
2023-05-08T17:57:55.910Z,99364.75
2023-05-08T18:00:24.479Z,99369.28
2023-05-08T18:02:53.158Z,99362.06
2023-05-08T18:05:22.004Z,99368.28
2023-05-08T18:07:52.347Z,99374.34
2023-05-08T18:10:21.430Z,99374.34
2023-05-08T18:12:49.904Z,99376.97
2023-05-08T18:15:18.409Z,99368.91
2023-05-08T18:17:47.014Z,99374.28
2023-05-08T18:20:16.262Z,99384.03
2023-05-08T18:22:45.363Z,99379.34
2023-05-08T18:25:15.342Z,99385.56
2023-05-08T18:27:46.036Z,99381.06
2023-05-08T18:30:15.598Z,99381.06
2023-05-08T18:32:44.372Z,99379.34
2023-05-08T18:35:12.867Z,99385.56
2023-05-08T18:37:41.277Z,99386.72
2023-05-08T18:40:11.149Z,99379.53
2023-05-08T18:42:41.111Z,99391.25
2023-05-08T18:45:12.109Z,99394.78
2023-05-08T18:47:40.599Z,99390.44
2023-05-08T18:50:10.624Z,99393.97
2023-05-08T18:52:39.302Z,99401.19
2023-05-08T18:55:09.254Z,99397.47
2023-05-08T18:57:37.754Z,99391.44
2023-05-08T19:00:09.681Z,99388.56
2023-05-08T19:02:38.333Z,99397.47
2023-05-08T19:05:08.104Z,99397.47
2023-05-08T19:07:36.868Z,99399.19
2023-05-08T19:10:06.706Z,99399.19
2023-05-08T19:12:35.232Z,99393.97
2023-05-08T19:15:03.623Z,99401.19
2023-05-08T19:17:34.950Z,99390.44
2023-05-08T19:20:03.953Z,99387.72
2023-05-08T19:22:35.245Z,99395.81
2023-05-08T19:25:04.838Z,99398.50
2023-05-08T19:27:33.569Z,99387.88
2023-05-08T19:30:02.053Z,99386.19
2023-05-08T19:32:30.542Z,99392.28
2023-05-08T19:35:02.576Z,99384.34
2023-05-08T19:37:31.260Z,99388.88
2023-05-08T19:39:59.815Z,99384.03
2023-05-08T19:42:28.262Z,99385.56
2023-05-08T19:44:56.826Z,99390.13
2023-05-08T19:47:25.604Z,99391.97
2023-05-08T19:49:54.474Z,99385.75
2023-05-08T19:52:24.274Z,99379.53
2023-05-08T19:54:52.699Z,99380.69
2023-05-08T19:57:21.235Z,99376.97
2023-05-08T19:59:49.990Z,99379.66
2023-05-08T20:02:18.623Z,99376.97
2023-05-08T20:05:14.234Z,99378.81
2023-05-08T20:07:36.856Z,99369.91
2023-05-08T20:10:06.037Z,99372.59
2023-05-08T20:12:34.428Z,99366.22
2023-05-08T20:15:03.105Z,99361.97
2023-05-08T20:17:31.517Z,99360.31
2023-05-08T20:20:00.116Z,99361.16
2023-05-08T20:22:28.580Z,99363.13
2023-05-08T20:24:58.554Z,99361.28
2023-05-08T20:27:27.011Z,99361.84
2023-05-08T20:29:55.421Z,99366.53
2023-05-08T20:32:23.943Z,99366.22
2023-05-08T20:34:52.433Z,99370.59
2023-05-08T20:37:20.836Z,99358.00
2023-05-08T20:39:49.417Z,99358.00
2023-05-08T20:42:19.331Z,99361.53
2023-05-08T20:44:47.788Z,99359.81
2023-05-08T20:47:16.361Z,99358.84
2023-05-08T20:49:44.729Z,99358.66
2023-05-08T20:52:13.169Z,99355.00
2023-05-08T20:54:44.480Z,99360.53
2023-05-08T20:57:15.901Z,99353.28
2023-05-08T20:59:47.282Z,99352.31
2023-05-08T21:02:15.904Z,99353.47
2023-05-08T21:04:44.328Z,99353.28
2023-05-08T21:07:12.790Z,99349.75
2023-05-08T21:09:41.331Z,99348.06
2023-05-08T21:12:09.886Z,99352.44
2023-05-08T21:14:38.482Z,99349.75
2023-05-08T21:17:08.223Z,99346.09
2023-05-08T21:19:37.584Z,99341.84
2023-05-08T21:22:07.734Z,99351.75
2023-05-08T21:24:36.592Z,99351.75
2023-05-08T21:27:05.241Z,99346.38
2023-05-08T21:29:33.626Z,99348.06
2023-05-08T21:32:02.169Z,99347.38
2023-05-08T21:34:32.027Z,99346.38
2023-05-08T21:37:00.559Z,99340.16
2023-05-08T21:39:31.695Z,99346.38
2023-05-08T21:42:00.140Z,99349.06
2023-05-08T21:44:28.723Z,99340.31
2023-05-08T21:46:57.292Z,99342.84
2023-05-08T21:49:25.759Z,99333.78
2023-05-08T21:51:55.613Z,99333.63
2023-05-08T21:54:24.335Z,99329.25
2023-05-08T21:56:52.877Z,99331.94
2023-05-08T21:59:21.272Z,99337.47
2023-05-08T22:01:49.753Z,99336.63
2023-05-08T22:04:18.219Z,99338.28
2023-05-08T22:06:46.962Z,99338.47
2023-05-08T22:09:16.723Z,99331.25
2023-05-08T22:11:45.336Z,99326.88
2023-05-08T22:14:13.799Z,99333.09
2023-05-08T22:16:42.501Z,99333.09
2023-05-08T22:19:11.672Z,99332.25
2023-05-08T22:21:40.049Z,99322.34
2023-05-08T22:24:09.469Z,99322.34
2023-05-08T22:26:39.201Z,99326.88
2023-05-08T22:29:07.560Z,99321.50
2023-05-08T22:31:36.126Z,99321.50
2023-05-08T22:34:04.680Z,99311.72
2023-05-08T22:36:33.290Z,99314.41
2023-05-08T22:39:01.685Z,99314.41
2023-05-08T22:41:30.882Z,99318.09
2023-05-08T22:44:00.857Z,99311.72
2023-05-08T22:46:29.525Z,99310.03
2023-05-08T22:48:58.148Z,99308.34
2023-05-08T22:51:27.788Z,99306.50
2023-05-08T22:53:56.505Z,99301.97
2023-05-08T22:56:24.888Z,99300.28
2023-05-08T22:58:54.730Z,99300.28
2023-05-08T23:01:24.553Z,99302.97
2023-05-08T23:03:53.766Z,99302.97
2023-05-08T23:06:22.427Z,99309.34
2023-05-08T23:08:50.919Z,99303.13
2023-05-08T23:11:19.523Z,99302.28
2023-05-08T23:13:48.012Z,99298.75
2023-05-08T23:16:16.408Z,99303.25
2023-05-08T23:18:46.578Z,99296.91
2023-05-08T23:21:15.066Z,99296.06
2023-05-08T23:23:44.352Z,99295.19
2023-05-08T23:26:12.700Z,99289.81
2023-05-08T23:28:41.063Z,99297.88
2023-05-08T23:31:09.654Z,99290.81
2023-05-08T23:33:37.996Z,99283.59
2023-05-08T23:36:09.790Z,99288.13
2023-05-08T23:38:38.156Z,99286.28
2023-05-08T23:41:06.540Z,99284.44
2023-05-08T23:43:35.096Z,99285.44
2023-05-08T23:46:03.624Z,99282.75
2023-05-08T23:48:32.396Z,99279.22
2023-05-08T23:51:00.762Z,99283.59
2023-05-08T23:53:30.457Z,99278.38
2023-05-08T23:55:59.029Z,99274.81
2023-05-08T23:58:27.442Z,99276.69
